sensor_id;sensor_type;location;lat;lon;timestamp;pressure;altitude;pressure_sealevel;temperature;humidity
21520;BME280;10921;53.614;9.882;2023-04-27T00:00:39;101663.50;;;4.78;76.98
21520;BME280;10921;53.614;9.882;2023-04-27T00:03:05;101681.41;;;4.89;76.82
21520;BME280;10921;53.614;9.882;2023-04-27T00:05:36;101670.94;;;4.87;77.50
21520;BME280;10921;53.614;9.882;2023-04-27T00:08:05;101668.31;;;4.87;77.59
21520;BME280;10921;53.614;9.882;2023-04-27T00:10:32;101670.75;;;4.90;77.04
21520;BME280;10921;53.614;9.882;2023-04-27T00:12:59;101673.47;;;4.89;76.95
21520;BME280;10921;53.614;9.882;2023-04-27T00:15:26;101672.66;;;4.88;77.07
21520;BME280;10921;53.614;9.882;2023-04-27T00:17:52;101658.06;;;4.81;77.00
21520;BME280;10921;53.614;9.882;2023-04-27T00:20:20;101676.25;;;4.87;77.00
21520;BME280;10921;53.614;9.882;2023-04-27T00:22:46;101665.75;;;4.86;76.78
21520;BME280;10921;53.614;9.882;2023-04-27T00:25:13;101658.22;;;4.78;76.99
21520;BME280;10921;53.614;9.882;2023-04-27T00:27:39;101672.38;;;4.77;76.68
21520;BME280;10921;53.614;9.882;2023-04-27T00:30:06;101659.25;;;4.76;76.44
21520;BME280;10921;53.614;9.882;2023-04-27T00:32:33;101622.13;;;4.46;76.00
21520;BME280;10921;53.614;9.882;2023-04-27T00:35:00;101639.19;;;4.56;76.73
21520;BME280;10921;53.614;9.882;2023-04-27T00:37:26;101657.44;;;4.60;76.57
21520;BME280;10921;53.614;9.882;2023-04-27T00:39:53;101655.06;;;4.56;76.59
21520;BME280;10921;53.614;9.882;2023-04-27T00:42:19;101664.09;;;4.52;77.27
21520;BME280;10921;53.614;9.882;2023-04-27T00:44:46;101647.50;;;4.33;77.74
21520;BME280;10921;53.614;9.882;2023-04-27T00:47:13;101673.03;;;4.49;78.09
21520;BME280;10921;53.614;9.882;2023-04-27T00:49:41;101659.13;;;4.46;78.64
21520;BME280;10921;53.614;9.882;2023-04-27T00:52:08;101669.38;;;4.52;78.97
21520;BME280;10921;53.614;9.882;2023-04-27T00:54:34;101678.78;;;4.57;79.02
21520;BME280;10921;53.614;9.882;2023-04-27T00:57:01;101673.47;;;4.57;78.94
21520;BME280;10921;53.614;9.882;2023-04-27T00:59:29;101681.22;;;4.60;78.67
21520;BME280;10921;53.614;9.882;2023-04-27T01:01:56;101674.00;;;4.64;78.77
21520;BME280;10921;53.614;9.882;2023-04-27T01:04:23;101671.59;;;4.59;78.67
21520;BME280;10921;53.614;9.882;2023-04-27T01:06:50;101687.97;;;4.66;78.35
21520;BME280;10921;53.614;9.882;2023-04-27T01:09:17;101670.00;;;4.57;78.58
21520;BME280;10921;53.614;9.882;2023-04-27T01:11:45;101682.00;;;4.63;79.15
21520;BME280;10921;53.614;9.882;2023-04-27T01:14:12;101646.09;;;4.43;78.67
21520;BME280;10921;53.614;9.882;2023-04-27T01:16:38;101686.44;;;4.62;78.79
21520;BME280;10921;53.614;9.882;2023-04-27T01:19:06;101672.50;;;4.58;79.03
21520;BME280;10921;53.614;9.882;2023-04-27T01:21:34;101691.72;;;4.62;79.22
21520;BME280;10921;53.614;9.882;2023-04-27T01:24:03;101667.13;;;4.44;78.79
21520;BME280;10921;53.614;9.882;2023-04-27T01:26:29;101698.94;;;4.58;79.12
21520;BME280;10921;53.614;9.882;2023-04-27T01:28:56;101699.06;;;4.57;79.02
21520;BME280;10921;53.614;9.882;2023-04-27T01:31:23;101687.25;;;4.47;79.28
21520;BME280;10921;53.614;9.882;2023-04-27T01:33:49;101694.78;;;4.54;79.37
21520;BME280;10921;53.614;9.882;2023-04-27T01:36:16;101685.53;;;4.46;79.42
21520;BME280;10921;53.614;9.882;2023-04-27T01:38:43;101700.06;;;4.54;79.73
21520;BME280;10921;53.614;9.882;2023-04-27T01:41:09;101687.94;;;4.50;79.82
21520;BME280;10921;53.614;9.882;2023-04-27T01:43:36;101702.63;;;4.56;79.42
21520;BME280;10921;53.614;9.882;2023-04-27T01:46:07;101701.88;;;4.54;79.99
21520;BME280;10921;53.614;9.882;2023-04-27T01:48:34;101702.72;;;4.54;79.95
21520;BME280;10921;53.614;9.882;2023-04-27T01:51:01;101705.19;;;4.57;79.54
21520;BME280;10921;53.614;9.882;2023-04-27T01:53:29;101729.00;;;4.57;79.93
21520;BME280;10921;53.614;9.882;2023-04-27T01:55:56;101725.50;;;4.57;80.39
21520;BME280;10921;53.614;9.882;2023-04-27T01:58:22;101731.28;;;4.64;80.25
21520;BME280;10921;53.614;9.882;2023-04-27T02:00:49;101725.06;;;4.65;80.15
21520;BME280;10921;53.614;9.882;2023-04-27T02:03:15;101728.91;;;4.75;80.46
21520;BME280;10921;53.614;9.882;2023-04-27T02:05:42;101737.38;;;4.81;80.26
21520;BME280;10921;53.614;9.882;2023-04-27T02:08:09;101740.56;;;4.88;80.29
21520;BME280;10921;53.614;9.882;2023-04-27T02:10:35;101742.78;;;4.95;79.81
21520;BME280;10921;53.614;9.882;2023-04-27T02:13:02;101734.59;;;5.00;79.79
21520;BME280;10921;53.614;9.882;2023-04-27T02:15:28;101734.16;;;5.08;79.60
21520;BME280;10921;53.614;9.882;2023-04-27T02:17:55;101739.13;;;5.14;79.42
21520;BME280;10921;53.614;9.882;2023-04-27T02:20:22;101695.88;;;4.99;79.28
21520;BME280;10921;53.614;9.882;2023-04-27T02:22:49;101733.31;;;5.23;78.97
21520;BME280;10921;53.614;9.882;2023-04-27T02:25:15;101730.34;;;5.29;78.87
21520;BME280;10921;53.614;9.882;2023-04-27T02:27:42;101728.28;;;5.34;78.62
21520;BME280;10921;53.614;9.882;2023-04-27T02:30:10;101722.16;;;5.34;78.58
21520;BME280;10921;53.614;9.882;2023-04-27T02:32:37;101733.06;;;5.43;78.31
21520;BME280;10921;53.614;9.882;2023-04-27T02:35:24;101711.44;;;5.35;78.04
21520;BME280;10921;53.614;9.882;2023-04-27T02:37:50;101720.59;;;5.45;77.74
21520;BME280;10921;53.614;9.882;2023-04-27T02:40:17;101739.44;;;5.55;77.67
21520;BME280;10921;53.614;9.882;2023-04-27T02:42:43;101713.69;;;5.43;77.39
21520;BME280;10921;53.614;9.882;2023-04-27T02:45:10;101739.28;;;5.58;76.94
21520;BME280;10921;53.614;9.882;2023-04-27T02:47:36;101708.63;;;5.38;76.53
21520;BME280;10921;53.614;9.882;2023-04-27T02:50:03;101729.09;;;5.50;76.36
21520;BME280;10921;53.614;9.882;2023-04-27T02:52:30;101705.50;;;5.32;76.31
21520;BME280;10921;53.614;9.882;2023-04-27T02:54:56;101737.41;;;5.44;76.50
21520;BME280;10921;53.614;9.882;2023-04-27T02:57:23;101723.34;;;5.28;76.13
21520;BME280;10921;53.614;9.882;2023-04-27T02:59:49;101741.53;;;5.34;76.14
21520;BME280;10921;53.614;9.882;2023-04-27T03:02:16;101705.84;;;5.10;76.05
21520;BME280;10921;53.614;9.882;2023-04-27T03:04:42;101737.09;;;5.19;75.88
21520;BME280;10921;53.614;9.882;2023-04-27T03:07:09;101732.06;;;5.14;76.12
21520;BME280;10921;53.614;9.882;2023-04-27T03:09:37;101736.97;;;5.05;75.88
21520;BME280;10921;53.614;9.882;2023-04-27T03:12:04;101741.75;;;4.98;76.29
21520;BME280;10921;53.614;9.882;2023-04-27T03:14:31;101711.97;;;4.79;76.30
21520;BME280;10921;53.614;9.882;2023-04-27T03:16:57;101733.13;;;4.79;76.42
21520;BME280;10921;53.614;9.882;2023-04-27T03:19:23;101737.78;;;4.74;76.65
21520;BME280;10921;53.614;9.882;2023-04-27T03:21:50;101735.81;;;4.62;76.84
21520;BME280;10921;53.614;9.882;2023-04-27T03:24:16;101736.16;;;4.55;77.30
21520;BME280;10921;53.614;9.882;2023-04-27T03:26:43;101743.31;;;4.53;77.86
21520;BME280;10921;53.614;9.882;2023-04-27T03:29:09;101717.91;;;4.34;78.01
21520;BME280;10921;53.614;9.882;2023-04-27T03:31:36;101693.63;;;4.10;78.12
21520;BME280;10921;53.614;9.882;2023-04-27T03:34:02;101679.59;;;3.92;78.36
21520;BME280;10921;53.614;9.882;2023-04-27T03:36:29;101729.56;;;4.30;78.73
21520;BME280;10921;53.614;9.882;2023-04-27T03:38:57;101704.34;;;4.07;78.76
21520;BME280;10921;53.614;9.882;2023-04-27T03:41:23;101695.94;;;3.99;78.92
21520;BME280;10921;53.614;9.882;2023-04-27T03:43:50;101749.31;;;4.22;80.00
21520;BME280;10921;53.614;9.882;2023-04-27T03:46:18;101751.97;;;4.22;80.15
21520;BME280;10921;53.614;9.882;2023-04-27T03:48:53;101744.81;;;4.24;81.19
21520;BME280;10921;53.614;9.882;2023-04-27T03:51:20;101740.47;;;4.23;81.05
21520;BME280;10921;53.614;9.882;2023-04-27T03:53:46;101713.06;;;4.09;81.35
21520;BME280;10921;53.614;9.882;2023-04-27T03:56:13;101738.75;;;4.22;80.86
21520;BME280;10921;53.614;9.882;2023-04-27T03:58:39;101750.97;;;4.25;80.72
21520;BME280;10921;53.614;9.882;2023-04-27T04:01:06;101729.50;;;4.14;81.06
21520;BME280;10921;53.614;9.882;2023-04-27T04:03:35;101750.03;;;4.26;81.77
21520;BME280;10921;53.614;9.882;2023-04-27T04:06:02;101747.22;;;4.29;81.51
21520;BME280;10921;53.614;9.882;2023-04-27T04:08:29;101745.34;;;4.31;81.78
21520;BME280;10921;53.614;9.882;2023-04-27T04:10:55;101746.13;;;4.33;81.95
21520;BME280;10921;53.614;9.882;2023-04-27T04:13:22;101751.09;;;4.39;81.80
21520;BME280;10921;53.614;9.882;2023-04-27T04:15:49;101745.91;;;4.38;81.63
21520;BME280;10921;53.614;9.882;2023-04-27T04:18:15;101754.44;;;4.43;81.20
21520;BME280;10921;53.614;9.882;2023-04-27T04:20:41;101731.28;;;4.31;81.29
21520;BME280;10921;53.614;9.882;2023-04-27T04:23:08;101755.19;;;4.45;81.22
21520;BME280;10921;53.614;9.882;2023-04-27T04:25:34;101762.72;;;4.52;81.31
21520;BME280;10921;53.614;9.882;2023-04-27T04:28:01;101731.28;;;4.31;81.40
21520;BME280;10921;53.614;9.882;2023-04-27T04:30:28;101764.22;;;4.58;81.77
21520;BME280;10921;53.614;9.882;2023-04-27T04:32:54;101770.88;;;4.65;81.90
21520;BME280;10921;53.614;9.882;2023-04-27T04:35:21;101749.38;;;4.55;81.66
21520;BME280;10921;53.614;9.882;2023-04-27T04:37:47;101766.13;;;4.72;81.88
21520;BME280;10921;53.614;9.882;2023-04-27T04:40:14;101741.88;;;4.64;81.36
21520;BME280;10921;53.614;9.882;2023-04-27T04:42:40;101758.47;;;4.83;81.36
21520;BME280;10921;53.614;9.882;2023-04-27T04:45:07;101778.03;;;4.96;81.68
21520;BME280;10921;53.614;9.882;2023-04-27T04:47:34;101785.63;;;5.02;81.58
21520;BME280;10921;53.614;9.882;2023-04-27T04:50:00;101786.13;;;5.09;81.19
21520;BME280;10921;53.614;9.882;2023-04-27T04:52:27;101774.63;;;5.10;80.99
21520;BME280;10921;53.614;9.882;2023-04-27T04:54:54;101784.72;;;5.19;80.84
21520;BME280;10921;53.614;9.882;2023-04-27T04:57:20;101766.59;;;5.11;80.71
21520;BME280;10921;53.614;9.882;2023-04-27T04:59:47;101779.31;;;5.20;80.41
21520;BME280;10921;53.614;9.882;2023-04-27T05:02:14;101774.13;;;5.19;80.04
21520;BME280;10921;53.614;9.882;2023-04-27T05:04:40;101791.28;;;5.27;80.36
21520;BME280;10921;53.614;9.882;2023-04-27T05:07:07;101790.34;;;5.28;80.07
21520;BME280;10921;53.614;9.882;2023-04-27T05:09:33;101764.91;;;5.10;80.58
21520;BME280;10921;53.614;9.882;2023-04-27T05:12:00;101790.97;;;5.34;80.60
21520;BME280;10921;53.614;9.882;2023-04-27T05:14:27;101791.22;;;5.29;80.85
21520;BME280;10921;53.614;9.882;2023-04-27T05:16:54;101785.56;;;5.35;80.87
21520;BME280;10921;53.614;9.882;2023-04-27T05:19:21;101792.22;;;5.42;81.19
21520;BME280;10921;53.614;9.882;2023-04-27T05:21:47;101793.09;;;5.43;81.57
21520;BME280;10921;53.614;9.882;2023-04-27T05:24:14;101772.94;;;5.40;81.36
21520;BME280;10921;53.614;9.882;2023-04-27T05:26:41;101785.56;;;5.51;81.64
21520;BME280;10921;53.614;9.882;2023-04-27T05:29:08;101795.72;;;5.58;81.74
21520;BME280;10921;53.614;9.882;2023-04-27T05:31:35;101730.94;;;5.34;81.73
21520;BME280;10921;53.614;9.882;2023-04-27T05:34:01;101786.22;;;5.70;81.55
21520;BME280;10921;53.614;9.882;2023-04-27T05:36:28;101787.31;;;5.82;81.19
21520;BME280;10921;53.614;9.882;2023-04-27T05:38:54;101791.13;;;5.93;80.60
21520;BME280;10921;53.614;9.882;2023-04-27T05:41:21;101791.59;;;6.00;80.08
21520;BME280;10921;53.614;9.882;2023-04-27T05:43:49;101783.97;;;6.10;80.08
21520;BME280;10921;53.614;9.882;2023-04-27T05:46:15;101786.06;;;6.19;79.98
21520;BME280;10921;53.614;9.882;2023-04-27T05:48:42;101794.41;;;6.27;79.40
21520;BME280;10921;53.614;9.882;2023-04-27T05:51:08;101791.16;;;6.38;79.39
21520;BME280;10921;53.614;9.882;2023-04-27T05:53:35;101768.88;;;6.26;79.07
21520;BME280;10921;53.614;9.882;2023-04-27T05:56:01;101800.75;;;6.54;78.54
21520;BME280;10921;53.614;9.882;2023-04-27T05:58:29;101757.53;;;6.38;77.80
21520;BME280;10921;53.614;9.882;2023-04-27T06:00:56;101793.16;;;6.62;77.28
21520;BME280;10921;53.614;9.882;2023-04-27T06:03:23;101800.78;;;6.83;77.18
21520;BME280;10921;53.614;9.882;2023-04-27T06:05:57;101803.44;;;6.97;77.00
21520;BME280;10921;53.614;9.882;2023-04-27T06:08:24;101810.16;;;7.02;75.46
21520;BME280;10921;53.614;9.882;2023-04-27T06:10:52;101805.31;;;7.09;75.06
21520;BME280;10921;53.614;9.882;2023-04-27T06:13:19;101800.16;;;7.20;74.64
21520;BME280;10921;53.614;9.882;2023-04-27T06:15:46;101757.38;;;6.98;74.49
21520;BME280;10921;53.614;9.882;2023-04-27T06:18:13;101806.97;;;7.38;74.01
21520;BME280;10921;53.614;9.882;2023-04-27T06:20:39;101808.22;;;7.47;74.05
21520;BME280;10921;53.614;9.882;2023-04-27T06:23:07;101786.13;;;7.47;74.16
21520;BME280;10921;53.614;9.882;2023-04-27T06:25:33;101793.53;;;7.68;73.86
21520;BME280;10921;53.614;9.882;2023-04-27T06:28:02;101823.72;;;7.94;71.91
21520;BME280;10921;53.614;9.882;2023-04-27T06:30:29;101838.25;;;8.16;71.72
21520;BME280;10921;53.614;9.882;2023-04-27T06:32:55;101813.50;;;8.28;71.19
21520;BME280;10921;53.614;9.882;2023-04-27T06:35:22;101819.63;;;8.42;70.11
21520;BME280;10921;53.614;9.882;2023-04-27T06:37:48;101771.59;;;8.31;69.49
21520;BME280;10921;53.614;9.882;2023-04-27T06:40:15;101763.25;;;8.37;68.95
21520;BME280;10921;53.614;9.882;2023-04-27T06:42:42;101806.97;;;8.71;68.83
21520;BME280;10921;53.614;9.882;2023-04-27T06:45:08;101807.63;;;8.75;68.89
21520;BME280;10921;53.614;9.882;2023-04-27T06:47:35;101754.72;;;8.45;68.44
21520;BME280;10921;53.614;9.882;2023-04-27T06:50:02;101801.56;;;8.86;68.22
21520;BME280;10921;53.614;9.882;2023-04-27T06:52:31;101799.31;;;8.92;68.11
21520;BME280;10921;53.614;9.882;2023-04-27T06:54:58;101776.88;;;8.84;67.96
21520;BME280;10921;53.614;9.882;2023-04-27T06:57:24;101806.31;;;9.06;67.15
21520;BME280;10921;53.614;9.882;2023-04-27T06:59:52;101785.25;;;9.03;66.87
21520;BME280;10921;53.614;9.882;2023-04-27T07:02:18;101828.69;;;9.29;66.92
21520;BME280;10921;53.614;9.882;2023-04-27T07:04:45;101817.34;;;9.38;65.58
21520;BME280;10921;53.614;9.882;2023-04-27T07:07:12;101801.78;;;9.44;65.42
21520;BME280;10921;53.614;9.882;2023-04-27T07:09:38;101824.09;;;9.67;64.80
21520;BME280;10921;53.614;9.882;2023-04-27T07:12:05;101830.22;;;9.80;64.61
21520;BME280;10921;53.614;9.882;2023-04-27T07:14:32;101821.38;;;9.80;63.72
21520;BME280;10921;53.614;9.882;2023-04-27T07:16:59;101850.66;;;9.93;63.70
21520;BME280;10921;53.614;9.882;2023-04-27T07:19:25;101841.66;;;10.06;63.61
21520;BME280;10921;53.614;9.882;2023-04-27T07:21:51;101843.50;;;10.17;62.22
21520;BME280;10921;53.614;9.882;2023-04-27T07:24:18;101847.09;;;10.29;61.31
21520;BME280;10921;53.614;9.882;2023-04-27T07:26:45;101853.47;;;10.39;60.75
21520;BME280;10921;53.614;9.882;2023-04-27T07:29:12;101852.13;;;10.44;60.36
21520;BME280;10921;53.614;9.882;2023-04-27T07:31:53;101854.97;;;10.54;60.20
21520;BME280;10921;53.614;9.882;2023-04-27T07:34:21;101848.41;;;10.58;58.88
21520;BME280;10921;53.614;9.882;2023-04-27T07:36:48;101836.78;;;10.59;59.51
21520;BME280;10921;53.614;9.882;2023-04-27T07:39:14;101833.03;;;10.62;58.73
21520;BME280;10921;53.614;9.882;2023-04-27T07:41:41;101854.19;;;10.87;58.61
21520;BME280;10921;53.614;9.882;2023-04-27T07:44:08;101847.41;;;10.94;57.96
21520;BME280;10921;53.614;9.882;2023-04-27T07:46:34;101842.69;;;10.98;58.18
21520;BME280;10921;53.614;9.882;2023-04-27T07:49:00;101815.47;;;10.92;58.61
21520;BME280;10921;53.614;9.882;2023-04-27T07:51:27;101858.47;;;11.23;57.15
21520;BME280;10921;53.614;9.882;2023-04-27T07:53:54;101839.78;;;11.23;57.64
21520;BME280;10921;53.614;9.882;2023-04-27T07:56:21;101857.75;;;11.43;56.87
21520;BME280;10921;53.614;9.882;2023-04-27T07:58:48;101838.19;;;11.43;56.56
21520;BME280;10921;53.614;9.882;2023-04-27T08:01:14;101849.94;;;11.62;56.12
21520;BME280;10921;53.614;9.882;2023-04-27T08:03:43;101846.78;;;11.69;55.61
21520;BME280;10921;53.614;9.882;2023-04-27T08:06:10;101862.47;;;11.84;55.24
21520;BME280;10921;53.614;9.882;2023-04-27T08:08:37;101831.69;;;11.79;54.27
21520;BME280;10921;53.614;9.882;2023-04-27T08:11:04;101846.13;;;11.98;53.99
21520;BME280;10921;53.614;9.882;2023-04-27T08:13:34;101843.97;;;12.24;55.60
21520;BME280;10921;53.614;9.882;2023-04-27T08:16:01;101805.88;;;12.00;51.71
21520;BME280;10921;53.614;9.882;2023-04-27T08:18:27;101844.44;;;12.29;52.25
21520;BME280;10921;53.614;9.882;2023-04-27T08:20:54;101823.81;;;12.20;52.08
21520;BME280;10921;53.614;9.882;2023-04-27T08:23:20;101817.47;;;12.21;51.07
21520;BME280;10921;53.614;9.882;2023-04-27T08:25:47;101840.47;;;12.45;49.93
21520;BME280;10921;53.614;9.882;2023-04-27T08:28:14;101838.25;;;12.50;49.49
21520;BME280;10921;53.614;9.882;2023-04-27T08:30:41;101838.78;;;12.64;49.92
21520;BME280;10921;53.614;9.882;2023-04-27T08:33:07;101835.31;;;12.74;49.70
21520;BME280;10921;53.614;9.882;2023-04-27T08:35:34;101806.78;;;12.63;49.38
21520;BME280;10921;53.614;9.882;2023-04-27T08:38:01;101842.03;;;12.89;50.32
21520;BME280;10921;53.614;9.882;2023-04-27T08:40:27;101828.75;;;12.87;48.40
21520;BME280;10921;53.614;9.882;2023-04-27T08:42:56;101817.53;;;12.73;47.98
21520;BME280;10921;53.614;9.882;2023-04-27T08:45:24;101837.47;;;12.80;48.24
21520;BME280;10921;53.614;9.882;2023-04-27T08:47:51;101840.66;;;12.74;47.58
21520;BME280;10921;53.614;9.882;2023-04-27T08:50:18;101830.53;;;12.77;48.80
21520;BME280;10921;53.614;9.882;2023-04-27T08:52:45;101822.25;;;12.80;47.64
21520;BME280;10921;53.614;9.882;2023-04-27T08:55:12;101830.72;;;12.85;46.09
21520;BME280;10921;53.614;9.882;2023-04-27T08:57:52;101798.66;;;12.74;46.50
21520;BME280;10921;53.614;9.882;2023-04-27T09:00:19;101812.56;;;12.89;46.42
21520;BME280;10921;53.614;9.882;2023-04-27T09:02:47;101823.88;;;12.92;46.98
21520;BME280;10921;53.614;9.882;2023-04-27T09:05:15;101801.91;;;12.98;46.85
21520;BME280;10921;53.614;9.882;2023-04-27T09:07:43;101816.53;;;12.94;47.03
21520;BME280;10921;53.614;9.882;2023-04-27T09:10:20;101801.00;;;12.88;47.57
21520;BME280;10921;53.614;9.882;2023-04-27T09:12:59;101807.66;;;12.94;47.65
21520;BME280;10921;53.614;9.882;2023-04-27T09:15:29;101826.50;;;13.13;47.51
21520;BME280;10921;53.614;9.882;2023-04-27T09:18:06;101820.31;;;13.13;47.40
21520;BME280;10921;53.614;9.882;2023-04-27T09:20:45;101817.72;;;13.32;47.53
21520;BME280;10921;53.614;9.882;2023-04-27T09:23:44;101830.09;;;13.63;46.64
21520;BME280;10921;53.614;9.882;2023-04-27T09:26:21;101818.41;;;13.93;45.99
21520;BME280;10921;53.614;9.882;2023-04-27T09:28:50;101784.56;;;14.02;45.43
21520;BME280;10921;53.614;9.882;2023-04-27T09:31:18;101818.31;;;14.62;44.68
21520;BME280;10921;53.614;9.882;2023-04-27T09:33:53;101829.97;;;14.90;42.99
21520;BME280;10921;53.614;9.882;2023-04-27T09:36:21;101831.16;;;15.15;42.82
21520;BME280;10921;53.614;9.882;2023-04-27T09:38:48;101813.19;;;15.43;39.59
21520;BME280;10921;53.614;9.882;2023-04-27T09:41:17;101811.91;;;15.74;40.25
21520;BME280;10921;53.614;9.882;2023-04-27T09:43:44;101823.63;;;15.83;39.56
21520;BME280;10921;53.614;9.882;2023-04-27T09:46:12;101818.41;;;15.81;39.79
21520;BME280;10921;53.614;9.882;2023-04-27T09:48:39;101812.75;;;15.75;39.60
21520;BME280;10921;53.614;9.882;2023-04-27T09:51:06;101751.97;;;15.09;38.12
21520;BME280;10921;53.614;9.882;2023-04-27T09:54:00;101814.69;;;15.28;39.28
21520;BME280;10921;53.614;9.882;2023-04-27T09:56:43;101810.78;;;15.12;40.17
21520;BME280;10921;53.614;9.882;2023-04-27T10:01:59;101812.59;;;15.22;38.77
21520;BME280;10921;53.614;9.882;2023-04-27T10:04:51;101808.66;;;15.43;40.08
21520;BME280;10921;53.614;9.882;2023-04-27T10:07:25;101809.22;;;15.57;38.94
21520;BME280;10921;53.614;9.882;2023-04-27T10:09:52;101806.75;;;15.63;38.52
21520;BME280;10921;53.614;9.882;2023-04-27T10:12:26;101811.91;;;15.47;39.37
21520;BME280;10921;53.614;9.882;2023-04-27T10:14:58;101808.38;;;15.56;39.92
21520;BME280;10921;53.614;9.882;2023-04-27T10:17:30;101810.47;;;15.53;39.93
21520;BME280;10921;53.614;9.882;2023-04-27T10:20:01;101816.56;;;15.55;39.25
21520;BME280;10921;53.614;9.882;2023-04-27T10:22:48;101781.63;;;15.45;39.69
21520;BME280;10921;53.614;9.882;2023-04-27T10:27:58;101813.72;;;15.83;38.94
21520;BME280;10921;53.614;9.882;2023-04-27T10:30:30;101815.31;;;15.94;38.46
21520;BME280;10921;53.614;9.882;2023-04-27T10:33:02;101821.09;;;15.99;37.85
21520;BME280;10921;53.614;9.882;2023-04-27T10:38:13;101819.94;;;16.19;39.54
21520;BME280;10921;53.614;9.882;2023-04-27T10:40:43;101836.34;;;16.26;38.50
21520;BME280;10921;53.614;9.882;2023-04-27T10:43:14;101792.56;;;16.06;38.60
21520;BME280;10921;53.614;9.882;2023-04-27T10:45:42;101833.50;;;16.28;36.85
21520;BME280;10921;53.614;9.882;2023-04-27T10:48:12;101839.63;;;16.38;36.80
21520;BME280;10921;53.614;9.882;2023-04-27T10:50:41;101841.63;;;16.36;36.40
21520;BME280;10921;53.614;9.882;2023-04-27T10:53:10;101837.63;;;16.22;36.97
21520;BME280;10921;53.614;9.882;2023-04-27T10:55:36;101836.88;;;16.12;38.73
21520;BME280;10921;53.614;9.882;2023-04-27T10:58:03;101853.47;;;16.07;40.17
21520;BME280;10921;53.614;9.882;2023-04-27T11:00:34;101830.69;;;15.84;40.53
21520;BME280;10921;53.614;9.882;2023-04-27T11:05:37;101828.41;;;15.62;41.10
21520;BME280;10921;53.614;9.882;2023-04-27T11:08:08;101827.06;;;15.58;41.44
21520;BME280;10921;53.614;9.882;2023-04-27T11:10:45;101830.66;;;15.66;41.45
21520;BME280;10921;53.614;9.882;2023-04-27T11:13:14;101831.91;;;15.72;41.45
21520;BME280;10921;53.614;9.882;2023-04-27T11:18:12;101831.72;;;16.18;40.66
21520;BME280;10921;53.614;9.882;2023-04-27T11:20:38;101841.91;;;16.50;39.11
21520;BME280;10921;53.614;9.882;2023-04-27T11:23:06;101836.53;;;16.68;38.29
21520;BME280;10921;53.614;9.882;2023-04-27T11:25:32;101829.28;;;16.69;37.30
21520;BME280;10921;53.614;9.882;2023-04-27T11:27:59;101829.78;;;16.90;37.49
21520;BME280;10921;53.614;9.882;2023-04-27T11:30:25;101816.94;;;16.84;38.33
21520;BME280;10921;53.614;9.882;2023-04-27T11:32:52;101840.41;;;16.92;37.99
21520;BME280;10921;53.614;9.882;2023-04-27T11:35:19;101825.94;;;16.93;37.65
21520;BME280;10921;53.614;9.882;2023-04-27T11:37:57;101829.25;;;16.86;37.21
21520;BME280;10921;53.614;9.882;2023-04-27T11:40:24;101835.66;;;16.85;37.34
21520;BME280;10921;53.614;9.882;2023-04-27T11:42:57;101841.06;;;16.68;37.60
21520;BME280;10921;53.614;9.882;2023-04-27T11:45:25;101845.94;;;16.46;38.13
21520;BME280;10921;53.614;9.882;2023-04-27T11:47:53;101810.94;;;16.11;37.96
21520;BME280;10921;53.614;9.882;2023-04-27T11:50:23;101831.09;;;16.25;39.24
21520;BME280;10921;53.614;9.882;2023-04-27T11:52:49;101830.56;;;16.21;39.38
21520;BME280;10921;53.614;9.882;2023-04-27T11:55:19;101822.41;;;16.13;40.52
21520;BME280;10921;53.614;9.882;2023-04-27T11:57:46;101813.56;;;16.03;38.89
21520;BME280;10921;53.614;9.882;2023-04-27T12:00:13;101834.25;;;16.20;39.36
21520;BME280;10921;53.614;9.882;2023-04-27T12:02:41;101831.41;;;16.22;38.93
21520;BME280;10921;53.614;9.882;2023-04-27T12:05:09;101782.72;;;15.97;37.86
21520;BME280;10921;53.614;9.882;2023-04-27T12:07:38;101838.19;;;16.26;37.49
21520;BME280;10921;53.614;9.882;2023-04-27T12:10:05;101832.78;;;16.26;38.14
21520;BME280;10921;53.614;9.882;2023-04-27T12:12:33;101824.81;;;16.16;36.97
21520;BME280;10921;53.614;9.882;2023-04-27T12:14:59;101799.31;;;15.93;37.72
21520;BME280;10921;53.614;9.882;2023-04-27T12:17:26;101840.88;;;16.08;38.01
21520;BME280;10921;53.614;9.882;2023-04-27T12:19:53;101839.09;;;15.99;37.94
21520;BME280;10921;53.614;9.882;2023-04-27T12:22:19;101829.00;;;15.83;38.14
21520;BME280;10921;53.614;9.882;2023-04-27T12:24:46;101828.31;;;15.81;38.90
21520;BME280;10921;53.614;9.882;2023-04-27T12:27:12;101840.91;;;15.80;38.93
21520;BME280;10921;53.614;9.882;2023-04-27T12:29:39;101849.34;;;15.68;39.20
21520;BME280;10921;53.614;9.882;2023-04-27T12:32:05;101837.56;;;15.41;40.12
21520;BME280;10921;53.614;9.882;2023-04-27T12:34:32;101850.34;;;15.30;40.12
21520;BME280;10921;53.614;9.882;2023-04-27T12:36:58;101850.28;;;15.12;40.51
21520;BME280;10921;53.614;9.882;2023-04-27T12:39:25;101840.72;;;14.90;40.85
21520;BME280;10921;53.614;9.882;2023-04-27T12:41:52;101848.94;;;14.89;40.92
21520;BME280;10921;53.614;9.882;2023-04-27T12:44:19;101847.97;;;14.80;41.06
21520;BME280;10921;53.614;9.882;2023-04-27T12:46:46;101838.34;;;14.68;42.46
21520;BME280;10921;53.614;9.882;2023-04-27T12:49:13;101824.09;;;14.58;42.42
21520;BME280;10921;53.614;9.882;2023-04-27T12:51:40;101850.50;;;14.72;42.31
21520;BME280;10921;53.614;9.882;2023-04-27T12:54:08;101805.88;;;14.42;42.32
21520;BME280;10921;53.614;9.882;2023-04-27T12:56:35;101852.78;;;14.67;42.62
21520;BME280;10921;53.614;9.882;2023-04-27T12:59:02;101812.81;;;14.16;44.44
21520;BME280;10921;53.614;9.882;2023-04-27T13:01:29;101866.78;;;14.32;45.69
21520;BME280;10921;53.614;9.882;2023-04-27T13:04:01;101870.16;;;14.05;47.54
21520;BME280;10921;53.614;9.882;2023-04-27T13:06:29;101866.13;;;13.70;48.90
21520;BME280;10921;53.614;9.882;2023-04-27T13:08:58;101870.94;;;13.36;51.91
21520;BME280;10921;53.614;9.882;2023-04-27T13:11:25;101870.38;;;13.12;51.59